< < Back
Terminal Aerodrome Forecast


Current Version              Previous Versions:   1  2  3  4  5  6  7  8  9  

Terminal Aerodrome Forecast

557
FTUS42 KGSP 242320
TAFGSP
TAF
KGSP 242320Z 2500/2524 36002KT P6SM FEW200
     FM251600 25006KT P6SM SKC=

Latest METAR

729
SAUS70 KWBC 250700 RRH
MTRGSP
METAR KGSP 250653Z AUTO 00000KT 10SM CLR 09/05 A3001 RMK AO2 SLP158
T00940050


USA.gov is the U.S. government's official web portal to all federal, state and local government web resources and services.